Time;durP1;ratioP1;P1;durP2;ratioP2;P2;SDS_P1;SDS_P2;PMS_P1;PMS_P2;Temp;Humidity;BMP_temperature;BMP_pressure;BME280_temperature;BME280_humidity;BME280_pressure;Samples;Min_cycle;Max_cycle;Signal;HPM_P1;HPM_P2
2022/11/09 00:02:13;;;;;;;2.58;2.35;;;11.00;99.90;;;;;;7365842;19;20442;-78
2022/11/09 00:04:38;;;;;;;2.80;2.40;;;11.00;99.90;;;;;;7367576;19;20351;-77
2022/11/09 00:07:04;;;;;;;3.33;2.42;;;11.00;99.90;;;;;;7368432;19;20320;-78
2022/11/09 00:09:30;;;;;;;2.83;2.50;;;11.00;99.90;;;;;;7368485;19;20332;-77
2022/11/09 00:11:55;;;;;;;3.63;2.00;;;11.00;99.90;;;;;;7367249;19;20320;-77
2022/11/09 00:14:21;;;;;;;2.80;2.10;;;11.00;99.90;;;;;;7368362;19;20332;-78
2022/11/09 00:16:46;;;;;;;2.00;1.80;;;11.00;99.90;;;;;;7367536;19;20352;-77
2022/11/09 00:19:12;;;;;;;3.80;2.53;;;11.00;99.90;;;;;;7366190;19;20651;-78
2022/11/09 00:21:38;;;;;;;3.08;2.58;;;11.00;99.90;;;;;;7365155;19;20406;-77
2022/11/09 00:24:04;;;;;;;2.63;2.30;;;10.90;99.90;;;;;;7367723;19;20329;-78
2022/11/09 00:26:29;;;;;;;2.13;2.00;;;10.90;99.90;;;;;;7368857;19;20340;-78
2022/11/09 00:28:55;;;;;;;3.85;2.60;;;10.90;99.90;;;;;;7368465;19;20343;-78
2022/11/09 00:31:22;;;;;;;4.30;2.10;;;10.90;99.90;;;;;;7367484;19;20363;-77
2022/11/09 03:35:47;;;;;;;5.32;4.45;;;9.60;99.90;;;;;;7343152;19;20355;-78
2022/11/09 03:38:16;;;;;;;5.90;4.60;;;9.50;99.90;;;;;;7370128;19;20805;-78
2022/11/09 03:40:42;;;;;;;5.22;4.55;;;9.50;99.90;;;;;;7375646;19;20925;-78
2022/11/09 03:43:07;;;;;;;5.03;4.10;;;9.50;99.90;;;;;;7373945;19;20336;-78
2022/11/09 03:45:33;;;;;;;5.13;4.33;;;9.50;99.90;;;;;;7372417;19;20330;-78
2022/11/09 03:47:59;;;;;;;5.97;5.20;;;9.50;99.90;;;;;;7375560;19;20312;-77
2022/11/09 03:50:28;;;;;;;5.95;4.68;;;9.50;99.90;;;;;;7374792;19;20327;-78
2022/11/09 03:52:54;;;;;;;6.78;5.20;;;9.50;99.90;;;;;;7372715;19;20345;-78
2022/11/09 03:55:19;;;;;;;6.20;5.23;;;9.50;99.90;;;;;;7374598;19;20360;-77
2022/11/09 03:57:45;;;;;;;6.93;5.37;;;9.50;99.90;;;;;;7374154;19;20341;-79
2022/11/09 04:00:12;;;;;;;6.18;5.05;;;9.50;99.90;;;;;;7373690;19;20327;-77
2022/11/09 04:02:38;;;;;;;6.65;4.90;;;9.50;99.90;;;;;;7374041;19;20372;-77
2022/11/09 04:05:04;;;;;;;6.28;4.95;;;9.60;99.90;;;;;;7373888;19;20357;-77
2022/11/09 04:07:29;;;;;;;7.28;4.95;;;9.60;99.90;;;;;;7375408;19;20332;-78
2022/11/09 04:09:55;;;;;;;5.87;5.00;;;9.60;99.90;;;;;;7375412;19;20877;-78
2022/11/09 07:36:03;;;;;;;7.22;5.55;;;11.30;99.90;;;;;;7352896;19;20356;-78
2022/11/09 18:17:49;;;;;;;7.18;5.85;;;10.10;99.90;;;;;;7375184;19;20361;-78
2022/11/09 18:20:36;;;;;;;6.28;5.28;;;10.10;99.90;;;;;;7385626;19;21079;-78
2022/11/09 18:23:21;;;;;;;6.50;5.18;;;10.10;99.90;;;;;;7386813;19;20403;-77
2022/11/09 18:26:09;;;;;;;6.70;5.47;;;10.10;99.90;;;;;;7393169;19;20441;-84
2022/11/09 18:28:56;;;;;;;6.13;5.03;;;10.00;99.90;;;;;;7411191;19;20364;-79
2022/11/09 18:31:41;;;;;;;6.47;5.78;;;10.00;99.90;;;;;;7398369;19;20375;-80
2022/11/09 18:34:26;;;;;;;7.60;6.30;;;10.10;99.90;;;;;;7412092;19;20372;-79
2022/11/09 18:37:10;;;;;;;7.70;5.35;;;10.10;99.90;;;;;;7409972;19;20806;-80
2022/11/09 18:39:54;;;;;;;6.45;5.13;;;10.10;99.90;;;;;;7402243;19;20860;-80
2022/11/09 18:42:41;;;;;;;5.78;5.18;;;10.00;99.90;;;;;;7383268;19;20402;-77
2022/11/09 18:45:25;;;;;;;5.95;4.95;;;10.10;99.90;;;;;;7391634;19;21417;-77
2022/11/09 18:48:09;;;;;;;5.72;5.10;;;10.10;99.90;;;;;;7393270;19;20375;-75
2022/11/09 18:50:58;;;;;;;5.97;5.05;;;10.00;99.90;;;;;;7401177;19;20348;-84
2022/11/09 18:53:43;;;;;;;6.60;4.97;;;10.00;99.90;;;;;;7388905;19;20365;-79
2022/11/09 18:56:28;;;;;;;8.05;5.55;;;10.00;99.90;;;;;;7384454;19;20956;-80
2022/11/09 18:59:16;;;;;;;6.07;4.75;;;10.00;99.90;;;;;;7381892;19;20385;-77
2022/11/09 19:02:01;;;;;;;5.85;4.88;;;10.00;99.90;;;;;;7389786;19;20381;-81
2022/11/09 19:04:45;;;;;;;6.43;4.93;;;10.00;99.90;;;;;;7395821;19;20720;-81
2022/11/09 19:07:30;;;;;;;6.13;5.15;;;10.00;99.90;;;;;;7391727;19;20369;-80
2022/11/09 19:10:15;;;;;;;8.37;5.17;;;10.00;99.90;;;;;;7392055;19;20367;-79
2022/11/09 19:13:00;;;;;;;6.47;5.10;;;10.00;99.90;;;;;;7385616;19;20356;-78
2022/11/09 19:15:45;;;;;;;8.18;5.55;;;10.00;99.90;;;;;;7392987;19;20367;-79
2022/11/09 19:18:29;;;;;;;6.27;5.20;;;10.10;99.90;;;;;;7393707;19;20351;-79
2022/11/09 19:21:49;;;;;;;6.35;5.22;;;10.20;99.90;;;;;;7394790;19;20351;-82
2022/11/09 19:24:34;;;;;;;6.28;4.85;;;10.10;99.90;;;;;;7371299;19;20757;-79
2022/11/09 19:27:18;;;;;;;6.88;4.88;;;10.10;99.90;;;;;;7375280;19;20703;-79
2022/11/09 19:30:03;;;;;;;5.60;4.60;;;10.10;99.90;;;;;;7376169;19;20385;-79
2022/11/09 19:32:49;;;;;;;5.93;4.68;;;10.10;99.90;;;;;;7393831;19;20377;-79
2022/11/09 19:35:53;;;;;;;6.15;4.80;;;10.10;99.90;;;;;;7395423;19;20360;-81
2022/11/09 19:38:43;;;;;;;6.63;5.60;;;10.10;99.90;;;;;;7388780;19;20373;-80
2022/11/09 19:41:28;;;;;;;6.32;5.30;;;10.10;99.90;;;;;;7377317;19;21255;-78
2022/11/09 19:44:13;;;;;;;5.73;4.90;;;10.10;99.90;;;;;;7388772;19;20405;-79
2022/11/09 19:46:58;;;;;;;6.57;5.47;;;10.10;99.90;;;;;;7388843;19;20693;-79
2022/11/09 19:49:42;;;;;;;6.65;5.32;;;10.10;99.90;;;;;;7377651;19;20340;-78
2022/11/09 19:52:27;;;;;;;6.88;5.15;;;10.10;99.90;;;;;;7366304;19;20363;-78
2022/11/09 19:55:11;;;;;;;6.67;4.87;;;10.10;99.90;;;;;;7374060;19;20364;-77
2022/11/09 19:57:55;;;;;;;5.63;4.80;;;10.20;99.90;;;;;;7369336;19;20369;-77
2022/11/09 20:00:40;;;;;;;5.82;5.10;;;10.20;99.90;;;;;;7369308;19;20366;-77
2022/11/09 20:03:24;;;;;;;5.60;5.00;;;10.20;99.90;;;;;;7370240;19;20356;-77
2022/11/09 20:06:08;;;;;;;6.90;5.25;;;10.20;99.90;;;;;;7367711;19;20370;-77
2022/11/09 20:08:52;;;;;;;6.80;5.57;;;10.20;99.90;;;;;;7371107;19;20347;-78
2022/11/09 20:14:40;;;;;;;5.20;4.25;;;10.10;99.90;;;;;;7372593;19;21250;-78
2022/11/09 20:17:25;;;;;;;8.57;5.80;;;10.30;99.90;;;;;;7369065;19;20356;-79
2022/11/09 20:20:10;;;;;;;6.45;5.07;;;10.20;99.90;;;;;;7371793;19;20496;-78
2022/11/09 20:22:55;;;;;;;5.40;4.30;;;10.20;99.90;;;;;;7368849;19;20466;-78
2022/11/09 20:25:39;;;;;;;5.75;5.00;;;10.20;99.90;;;;;;7371911;19;20726;-79
2022/11/09 20:28:23;;;;;;;7.03;5.00;;;10.20;99.90;;;;;;7370067;19;20379;-79
2022/11/09 20:31:12;;;;;;;6.22;4.97;;;10.20;99.90;;;;;;7369599;19;20365;-80
2022/11/09 20:33:56;;;;;;;4.88;4.32;;;10.30;99.90;;;;;;7371405;19;20337;-79
2022/11/09 20:36:41;;;;;;;6.03;5.05;;;10.30;99.90;;;;;;7368396;19;20439;-78
2022/11/09 20:39:25;;;;;;;5.55;4.90;;;10.30;99.90;;;;;;7372768;19;21114;-85
2022/11/09 20:42:10;;;;;;;6.35;4.97;;;10.30;99.90;;;;;;7372738;19;20356;-82
2022/11/09 20:44:55;;;;;;;4.93;4.38;;;10.30;99.90;;;;;;7372970;19;20911;-80
2022/11/09 20:47:39;;;;;;;6.43;4.73;;;10.30;99.90;;;;;;7371639;19;20353;-79
2022/11/09 20:50:23;;;;;;;7.25;5.28;;;10.40;99.90;;;;;;7369370;19;20369;-80
2022/11/09 20:53:07;;;;;;;6.28;5.13;;;10.40;99.90;;;;;;7372288;19;20463;-81
2022/11/09 20:55:51;;;;;;;5.75;5.15;;;10.40;99.90;;;;;;7371591;19;21174;-79
2022/11/09 20:58:36;;;;;;;6.03;5.35;;;10.50;99.90;;;;;;7376037;19;20406;-79
2022/11/09 21:01:23;;;;;;;8.13;5.83;;;10.50;99.90;;;;;;7370915;19;20424;-78
2022/11/09 21:04:07;;;;;;;4.90;4.40;;;10.40;99.90;;;;;;7365924;19;20364;-78
2022/11/09 21:06:52;;;;;;;5.13;4.23;;;10.40;99.90;;;;;;7368978;19;20423;-81
2022/11/09 21:09:36;;;;;;;6.80;4.97;;;10.50;99.90;;;;;;7374228;19;21022;-82
2022/11/09 21:12:20;;;;;;;5.53;4.95;;;10.50;99.90;;;;;;7375896;19;20376;-81
2022/11/09 21:15:06;;;;;;;7.43;5.65;;;10.50;99.90;;;;;;7382739;19;20392;-82
2022/11/09 21:17:50;;;;;;;7.30;5.60;;;10.50;99.90;;;;;;7385529;19;20359;-81
2022/11/09 21:20:34;;;;;;;5.63;4.70;;;10.50;99.90;;;;;;7380345;19;20375;-83
2022/11/09 21:32:12;;;;;;;3.92;3.53;;;10.50;99.90;;;;;;7383098;19;20365;-78
2022/11/09 21:34:56;;;;;;;5.70;4.90;;;10.60;99.90;;;;;;7382734;19;20426;-78
2022/11/09 21:37:41;;;;;;;5.95;4.65;;;10.50;99.90;;;;;;7378856;19;21187;-78
2022/11/09 21:40:25;;;;;;;4.30;3.90;;;10.50;99.90;;;;;;7377978;19;21102;-78
2022/11/09 21:43:09;;;;;;;6.43;5.07;;;10.50;99.90;;;;;;7374787;19;20355;-79
2022/11/09 21:45:54;;;;;;;5.20;4.07;;;10.50;99.90;;;;;;7375158;19;20441;-77
2022/11/09 21:48:38;;;;;;;3.95;3.55;;;10.50;99.90;;;;;;7376746;19;20343;-78
2022/11/09 21:51:23;;;;;;;5.60;4.47;;;10.50;99.90;;;;;;7375104;19;20347;-80
2022/11/09 21:54:07;;;;;;;5.95;4.38;;;10.60;99.90;;;;;;7377884;19;20339;-79
2022/11/09 21:56:52;;;;;;;4.35;3.95;;;10.50;99.90;;;;;;7373299;19;20371;-78
2022/11/09 21:59:36;;;;;;;5.80;4.40;;;10.50;99.90;;;;;;7376147;19;20366;-79
2022/11/09 22:02:20;;;;;;;6.80;4.25;;;10.60;99.90;;;;;;7372446;19;20374;-79
2022/11/09 22:05:05;;;;;;;4.78;3.90;;;10.50;99.90;;;;;;7373432;19;20378;-79
2022/11/09 22:07:48;;;;;;;5.50;3.95;;;10.50;99.90;;;;;;7372188;19;20371;-78
2022/11/09 22:10:32;;;;;;;5.20;4.03;;;10.60;99.90;;;;;;7374621;19;20355;-80
2022/11/09 22:16:21;;;;;;;4.55;3.75;;;10.50;99.90;;;;;;7375241;19;20335;-78
2022/11/09 22:22:09;;;;;;;3.60;3.30;;;10.60;99.90;;;;;;7371490;19;20347;-79
2022/11/09 22:24:53;;;;;;;5.00;3.87;;;10.60;99.90;;;;;;7376968;19;20335;-78
2022/11/09 22:27:38;;;;;;;4.95;3.88;;;10.60;99.90;;;;;;7375095;19;21250;-80
2022/11/09 22:30:22;;;;;;;4.50;3.95;;;10.60;99.90;;;;;;7373643;19;20371;-77
2022/11/09 22:33:07;;;;;;;5.43;3.80;;;10.60;99.90;;;;;;7372364;19;20344;-79
2022/11/09 22:35:55;;;;;;;4.20;3.80;;;10.60;99.90;;;;;;7373580;19;20367;-77
2022/11/09 22:38:39;;;;;;;4.35;3.95;;;10.60;99.90;;;;;;7373645;19;20448;-76
2022/11/09 22:41:24;;;;;;;4.10;3.70;;;10.60;99.90;;;;;;7373290;19;20385;-77
2022/11/09 22:44:08;;;;;;;4.15;3.47;;;10.80;99.90;;;;;;7376025;19;20353;-77
2022/11/09 22:46:52;;;;;;;4.38;3.63;;;10.70;99.90;;;;;;7374190;19;20908;-77
2022/11/09 22:49:36;;;;;;;4.57;4.00;;;10.70;99.90;;;;;;7377411;19;20352;-77
2022/11/09 22:52:21;;;;;;;4.53;4.07;;;10.70;99.90;;;;;;7371995;19;20917;-77
2022/11/09 22:55:05;;;;;;;3.97;3.58;;;10.70;99.90;;;;;;7377092;19;20908;-77
2022/11/09 22:57:53;;;;;;;4.88;4.03;;;10.70;99.90;;;;;;7382111;19;20395;-77
2022/11/09 23:00:40;;;;;;;4.80;4.35;;;10.70;99.90;;;;;;7376133;19;20374;-77
2022/11/09 23:03:24;;;;;;;6.25;4.72;;;10.70;99.90;;;;;;7371266;19;20353;-77
2022/11/09 23:06:10;;;;;;;4.00;3.60;;;10.70;99.90;;;;;;7373241;19;21073;-77
2022/11/09 23:08:54;;;;;;;3.53;3.20;;;10.70;99.90;;;;;;7374583;19;20356;-77
2022/11/09 23:11:38;;;;;;;3.40;3.05;;;10.70;99.90;;;;;;7370903;19;20385;-77
2022/11/09 23:15:02;;;;;;;3.65;3.20;;;10.70;99.90;;;;;;7376667;19;20335;-77
2022/11/09 23:20:30;;;;;;;4.03;3.58;;;10.70;99.90;;;;;;7374690;19;20912;-78
2022/11/09 23:23:15;;;;;;;4.78;3.72;;;10.70;99.90;;;;;;7375332;19;20369;-79
2022/11/09 23:26:00;;;;;;;3.90;3.50;;;10.70;99.90;;;;;;7374416;19;20473;-77
2022/11/09 23:28:44;;;;;;;5.90;4.38;;;10.70;99.90;;;;;;7375964;19;20372;-78
2022/11/09 23:31:28;;;;;;;6.00;4.50;;;10.70;99.90;;;;;;7373076;19;21050;-77
2022/11/09 23:34:12;;;;;;;4.47;3.65;;;10.70;99.90;;;;;;7372800;19;20356;-77
2022/11/09 23:36:57;;;;;;;4.80;4.15;;;10.70;99.90;;;;;;7374651;19;20364;-78
2022/11/09 23:39:40;;;;;;;4.07;3.42;;;10.70;99.90;;;;;;7376303;19;20924;-76
2022/11/09 23:42:25;;;;;;;4.05;3.40;;;10.60;99.90;;;;;;7372256;19;20398;-78
2022/11/09 23:45:09;;;;;;;4.27;3.20;;;10.70;99.90;;;;;;7374164;19;20702;-77
2022/11/09 23:47:53;;;;;;;4.80;4.00;;;10.60;99.90;;;;;;7375071;19;20361;-77
2022/11/09 23:50:37;;;;;;;3.50;3.20;;;10.70;99.90;;;;;;7373213;19;21399;-78
2022/11/09 23:53:21;;;;;;;4.80;3.58;;;10.70;99.90;;;;;;7371483;19;20924;-78
2022/11/09 23:56:08;;;;;;;3.45;3.15;;;10.60;99.90;;;;;;7374474;19;20334;-78
2022/11/09 23:58:52;;;;;;;3.17;2.88;;;10.60;99.90;;;;;;7373183;19;21297;-78
